createdAt,value
2022-11-22T00:03:15.660Z,6.86
2022-11-22T00:08:15.550Z,6.87
2022-11-22T00:13:15.510Z,6.88
2022-11-22T00:18:15.433Z,6.90
2022-11-22T00:23:15.383Z,6.91
2022-11-22T00:28:15.275Z,6.92
2022-11-22T00:33:15.264Z,6.92
2022-11-22T00:38:15.233Z,6.93
2022-11-22T00:43:15.132Z,6.94
2022-11-22T00:48:15.036Z,6.94
2022-11-22T00:53:14.987Z,6.94
2022-11-22T00:58:14.908Z,6.94
2022-11-22T01:03:14.861Z,6.96
2022-11-22T01:08:38.819Z,6.97
2022-11-22T01:13:31.167Z,6.96
2022-11-22T01:18:31.114Z,6.95
2022-11-22T01:23:31.016Z,6.96
2022-11-22T01:28:31.008Z,6.97
2022-11-22T01:33:30.922Z,7.00
2022-11-22T01:38:30.857Z,7.02
2022-11-22T01:43:30.775Z,7.04
2022-11-22T01:48:30.718Z,7.07
2022-11-22T01:53:30.641Z,7.10
2022-11-22T01:58:30.585Z,7.13
2022-11-22T02:03:30.520Z,7.16
2022-11-22T02:08:30.443Z,7.17
2022-11-22T02:13:30.382Z,7.16
2022-11-22T02:18:30.324Z,7.14
2022-11-22T02:23:30.253Z,7.10
2022-11-22T02:28:30.194Z,7.03
2022-11-22T02:33:30.126Z,6.93
2022-11-22T02:38:30.062Z,6.81
2022-11-22T02:43:29.985Z,6.70
2022-11-22T02:48:29.936Z,6.61
2022-11-22T02:53:29.899Z,6.53
2022-11-22T02:58:29.810Z,6.46
2022-11-22T03:03:29.731Z,6.38
2022-11-22T03:08:29.691Z,6.29
2022-11-22T03:13:29.612Z,6.18
2022-11-22T03:18:29.545Z,6.09
2022-11-22T03:23:29.457Z,6.02
2022-11-22T03:28:29.422Z,5.96
2022-11-22T03:33:29.342Z,5.92
2022-11-22T03:38:29.270Z,5.90
2022-11-22T03:43:29.210Z,5.90
2022-11-22T03:48:29.128Z,5.93
2022-11-22T03:53:29.080Z,5.98
2022-11-22T03:58:29.023Z,6.02
2022-11-22T04:03:28.942Z,6.04
2022-11-22T04:08:28.901Z,6.03
2022-11-22T04:13:28.831Z,6.02
2022-11-22T04:18:28.727Z,5.99
2022-11-22T04:23:33.832Z,5.96
2022-11-22T04:29:07.507Z,5.91
2022-11-22T04:33:29.563Z,5.87
2022-11-22T04:38:28.503Z,5.84
2022-11-22T04:43:28.414Z,5.84
2022-11-22T04:48:28.362Z,5.85
2022-11-22T04:53:28.274Z,5.87
2022-11-22T04:58:28.243Z,5.90
2022-11-22T05:03:28.144Z,5.90
2022-11-22T05:08:28.104Z,5.91
2022-11-22T05:13:28.017Z,5.93
2022-11-22T05:18:37.450Z,5.95
2022-11-22T05:23:29.829Z,5.97
2022-11-22T05:28:29.772Z,5.99
2022-11-22T05:33:29.726Z,6.05
2022-11-22T05:38:29.649Z,6.12
2022-11-22T05:43:29.587Z,6.19
2022-11-22T05:48:29.518Z,6.24
2022-11-22T05:53:29.455Z,6.28
2022-11-22T05:58:29.395Z,6.31
2022-11-22T06:03:29.317Z,6.34
2022-11-22T06:08:29.255Z,6.37
2022-11-22T06:13:29.204Z,6.40
2022-11-22T06:18:29.146Z,6.44
2022-11-22T06:23:29.073Z,6.47
2022-11-22T06:28:29.000Z,6.51
2022-11-22T06:33:28.947Z,6.54
2022-11-22T06:38:28.848Z,6.56
2022-11-22T06:43:28.813Z,6.58
2022-11-22T06:48:28.724Z,6.60
2022-11-22T06:53:46.160Z,6.62
2022-11-22T06:58:29.603Z,6.64
2022-11-22T07:03:28.653Z,6.66
2022-11-22T07:08:28.475Z,6.68
2022-11-22T07:13:28.438Z,6.70
2022-11-22T07:18:28.353Z,6.71
2022-11-22T07:23:28.300Z,6.73
2022-11-22T07:28:28.194Z,6.75
2022-11-22T07:33:28.172Z,6.77
2022-11-22T07:38:28.074Z,6.80
2022-11-22T07:43:28.033Z,6.83
2022-11-22T07:48:27.948Z,6.87
2022-11-22T07:53:27.895Z,7.01
2022-11-22T07:58:27.821Z,7.28
2022-11-22T08:03:29.321Z,7.58
2022-11-22T08:08:27.690Z,7.81
2022-11-22T08:13:27.631Z,7.93
2022-11-22T08:18:27.544Z,7.96
2022-11-22T08:23:27.520Z,8.22
2022-11-22T08:28:27.420Z,8.72
2022-11-22T08:33:27.368Z,9.16
2022-11-22T08:38:27.288Z,9.66
2022-11-22T08:43:27.208Z,10.01
2022-11-22T08:48:27.168Z,10.19
2022-11-22T08:53:27.086Z,10.63
2022-11-22T08:58:27.051Z,11.06
2022-11-22T09:03:26.994Z,11.78
2022-11-22T09:08:28.880Z,13.15
2022-11-22T09:13:26.843Z,14.58
2022-11-22T09:18:26.750Z,15.60
2022-11-22T09:23:26.708Z,16.10
2022-11-22T09:28:26.640Z,16.00
2022-11-22T09:33:26.552Z,16.33
2022-11-22T09:38:26.501Z,17.40
2022-11-22T09:43:26.472Z,18.74
2022-11-22T09:48:26.363Z,19.27
2022-11-22T09:53:26.310Z,18.54
2022-11-22T09:58:26.241Z,17.03
2022-11-22T10:03:26.175Z,15.32
2022-11-22T10:08:26.093Z,13.78
2022-11-22T10:13:26.046Z,12.52
2022-11-22T10:18:25.974Z,11.55
2022-11-22T10:23:25.941Z,10.83
2022-11-22T10:28:25.819Z,10.33
2022-11-22T10:33:25.784Z,10.05
2022-11-22T10:38:25.717Z,9.92
2022-11-22T10:43:25.652Z,9.85
2022-11-22T10:48:25.576Z,9.76
2022-11-22T10:53:25.520Z,9.63
2022-11-22T10:58:25.426Z,9.48
2022-11-22T11:03:25.388Z,9.34
2022-11-22T11:08:47.813Z,9.36
2022-11-22T11:13:26.248Z,9.62
2022-11-22T11:18:25.176Z,9.83
2022-11-22T11:23:25.100Z,10.08
2022-11-22T11:28:25.072Z,10.39
2022-11-22T11:33:24.995Z,10.49
2022-11-22T11:38:24.886Z,10.40
2022-11-22T11:43:24.863Z,10.28
2022-11-22T11:48:24.778Z,10.12
2022-11-22T11:53:24.768Z,9.95
2022-11-22T11:58:24.656Z,9.84
2022-11-22T12:03:24.620Z,9.80
2022-11-22T12:08:24.531Z,9.88
2022-11-22T12:13:24.480Z,9.95
2022-11-22T12:18:24.408Z,9.95
2022-11-22T12:23:24.377Z,9.93
2022-11-22T12:28:24.260Z,9.90
2022-11-22T12:33:24.206Z,9.95
2022-11-22T12:38:24.166Z,10.24
2022-11-22T12:43:24.091Z,10.54
2022-11-22T12:48:24.435Z,10.66
2022-11-22T12:53:23.945Z,10.80
2022-11-22T12:58:23.850Z,10.90
2022-11-22T13:03:23.829Z,10.83
2022-11-22T13:08:23.736Z,10.62
2022-11-22T13:13:23.681Z,10.35
2022-11-22T13:18:23.612Z,10.08
2022-11-22T13:23:23.569Z,9.83
2022-11-22T13:28:23.500Z,9.64
2022-11-22T13:33:23.428Z,9.49
2022-11-22T13:38:23.403Z,9.36
2022-11-22T13:43:23.293Z,9.30
2022-11-22T13:48:23.180Z,9.27
2022-11-22T13:53:23.164Z,9.28
2022-11-22T13:58:23.078Z,9.32
2022-11-22T14:03:23.037Z,9.37
2022-11-22T14:08:22.952Z,9.33
2022-11-22T14:13:22.902Z,9.22
2022-11-22T14:18:22.805Z,9.14
2022-11-22T14:23:22.779Z,9.08
2022-11-22T14:28:22.676Z,9.02
2022-11-22T14:33:22.616Z,8.98
2022-11-22T14:38:28.412Z,8.95
2022-11-22T14:43:23.518Z,8.91
2022-11-22T14:48:22.386Z,8.89
2022-11-22T14:53:22.372Z,8.91
2022-11-22T14:58:22.288Z,8.94
2022-11-22T15:03:22.230Z,8.94
2022-11-22T15:09:21.461Z,8.93
2022-11-22T15:13:23.121Z,8.89
2022-11-22T15:58:22.491Z,8.58
2022-11-22T16:03:21.459Z,8.56
2022-11-22T16:08:21.354Z,8.54
2022-11-22T16:13:21.320Z,8.52
2022-11-22T16:18:21.216Z,8.49
2022-11-22T16:23:21.146Z,8.46
2022-11-22T16:28:21.108Z,8.44
2022-11-22T16:33:21.049Z,8.41
2022-11-22T16:38:20.941Z,8.40
2022-11-22T16:43:20.914Z,8.39
2022-11-22T16:48:35.857Z,8.39
2022-11-22T16:53:21.807Z,8.39
2022-11-22T16:58:20.673Z,8.39
2022-11-22T17:03:20.646Z,8.39
2022-11-22T17:08:20.561Z,8.39
2022-11-22T17:13:20.504Z,8.39
2022-11-22T17:18:20.432Z,8.38
2022-11-22T17:23:20.383Z,8.38
2022-11-22T17:28:20.290Z,8.37
2022-11-22T17:33:20.271Z,8.37
2022-11-22T17:38:20.172Z,8.38
2022-11-22T17:43:20.104Z,8.38
2022-11-22T17:48:20.045Z,8.38
2022-11-22T17:53:20.001Z,8.38
2022-11-22T17:58:19.886Z,8.39
2022-11-22T18:03:19.970Z,8.39
2022-11-22T18:08:21.630Z,8.39
2022-11-22T18:13:21.699Z,8.39
2022-11-22T18:18:48.514Z,8.39
2022-11-22T18:23:20.590Z,8.40
2022-11-22T18:28:19.520Z,8.41
2022-11-22T18:33:19.460Z,8.40
2022-11-22T18:38:19.369Z,8.40
2022-11-22T18:43:19.331Z,8.39
2022-11-22T18:48:20.033Z,8.39
2022-11-22T18:53:19.254Z,8.38
2022-11-22T18:58:19.122Z,8.39
2022-11-22T19:03:19.071Z,8.39
2022-11-22T19:08:19.016Z,8.40
2022-11-22T19:13:18.948Z,8.42
2022-11-22T19:18:18.872Z,8.43
2022-11-22T19:23:18.798Z,8.45
2022-11-22T19:28:18.709Z,8.46
2022-11-22T19:33:18.656Z,8.48
2022-11-22T19:38:18.612Z,8.50
2022-11-22T19:43:18.522Z,8.51
2022-11-22T19:48:18.512Z,8.52
2022-11-22T19:53:18.401Z,8.53
2022-11-22T19:58:18.357Z,8.53
2022-11-22T20:03:18.238Z,8.54
2022-11-22T20:08:18.211Z,8.54
2022-11-22T20:13:18.131Z,8.56
2022-11-22T20:18:18.062Z,8.57
2022-11-22T20:23:18.048Z,8.58
2022-11-22T20:28:17.969Z,8.60
2022-11-22T20:33:17.863Z,8.61
2022-11-22T20:38:17.831Z,8.61
2022-11-22T20:43:17.735Z,8.60
2022-11-22T20:48:17.659Z,8.59
2022-11-22T20:53:17.621Z,8.58
2022-11-22T20:58:17.577Z,8.57
2022-11-22T21:03:17.456Z,8.56
2022-11-22T21:08:17.449Z,8.55
2022-11-22T21:13:17.343Z,8.53
2022-11-22T21:18:25.238Z,8.51
2022-11-22T21:23:18.242Z,8.49
2022-11-22T21:28:17.174Z,8.47
2022-11-22T21:33:17.067Z,8.45
2022-11-22T21:38:17.012Z,8.44
2022-11-22T21:43:16.990Z,8.43
2022-11-22T21:48:16.923Z,8.42
2022-11-22T21:53:16.799Z,8.42
2022-11-22T21:58:16.753Z,8.42
2022-11-22T22:03:16.707Z,8.43
2022-11-22T22:08:16.666Z,8.44
2022-11-22T22:13:16.548Z,8.45
2022-11-22T22:18:16.505Z,8.45
2022-11-22T22:23:16.428Z,8.45
2022-11-22T22:28:16.347Z,8.45
2022-11-22T22:33:16.279Z,8.45
2022-11-22T22:38:16.236Z,8.44
2022-11-22T22:43:16.173Z,8.45
2022-11-22T22:48:16.127Z,8.45
2022-11-22T22:53:16.019Z,8.46
2022-11-22T22:58:21.690Z,8.47
2022-11-22T23:03:16.926Z,8.49
2022-11-22T23:08:15.845Z,8.50
2022-11-22T23:13:15.770Z,8.52
2022-11-22T23:18:15.698Z,8.53
2022-11-22T23:23:15.614Z,8.54
2022-11-22T23:28:15.567Z,8.56
2022-11-22T23:33:15.502Z,8.57
2022-11-22T23:38:15.438Z,8.59
2022-11-22T23:43:15.373Z,8.61
2022-11-22T23:48:15.314Z,8.63
2022-11-22T23:53:15.265Z,8.66
2022-11-22T23:58:15.204Z,8.68
